sensor_id;sensor_type;location;lat;lon;timestamp;temperature;humidity
21805;DHT22;11064;47.102;15.452;2022-09-23T04:02:48;3.40;99.90
21805;DHT22;11064;47.102;15.452;2022-09-23T04:05:14;3.40;99.90
21805;DHT22;11064;47.102;15.452;2022-09-23T04:07:40;3.40;99.90
21805;DHT22;11064;47.102;15.452;2022-09-23T04:10:07;3.50;99.90
21805;DHT22;11064;47.102;15.452;2022-09-23T04:12:34;3.40;99.90
21805;DHT22;11064;47.102;15.452;2022-09-23T04:15:00;3.50;99.90
21805;DHT22;11064;47.102;15.452;2022-09-23T04:17:26;3.50;99.90
21805;DHT22;11064;47.102;15.452;2022-09-23T04:19:52;3.50;99.90
21805;DHT22;11064;47.102;15.452;2022-09-23T04:22:17;3.50;99.90
21805;DHT22;11064;47.102;15.452;2022-09-23T04:24:43;3.40;99.90
21805;DHT22;11064;47.102;15.452;2022-09-23T04:27:09;3.40;99.90
21805;DHT22;11064;47.102;15.452;2022-09-23T04:29:34;3.40;99.90
21805;DHT22;11064;47.102;15.452;2022-09-23T04:32:00;3.50;99.90
21805;DHT22;11064;47.102;15.452;2022-09-23T04:34:26;3.40;99.90
21805;DHT22;11064;47.102;15.452;2022-09-23T04:36:52;3.40;99.90
21805;DHT22;11064;47.102;15.452;2022-09-23T04:39:17;3.40;99.90
21805;DHT22;11064;47.102;15.452;2022-09-23T04:41:44;3.40;99.90
21805;DHT22;11064;47.102;15.452;2022-09-23T04:44:13;3.40;99.90
21805;DHT22;11064;47.102;15.452;2022-09-23T04:46:43;3.40;99.90
21805;DHT22;11064;47.102;15.452;2022-09-23T04:49:13;3.40;99.90
21805;DHT22;11064;47.102;15.452;2022-09-23T04:51:39;3.40;99.90
21805;DHT22;11064;47.102;15.452;2022-09-23T04:54:09;3.40;99.90
21805;DHT22;11064;47.102;15.452;2022-09-23T04:56:36;3.40;99.90
21805;DHT22;11064;47.102;15.452;2022-09-23T04:59:02;3.40;99.90
21805;DHT22;11064;47.102;15.452;2022-09-23T05:01:32;3.50;99.90
21805;DHT22;11064;47.102;15.452;2022-09-23T05:04:03;3.50;99.90
21805;DHT22;11064;47.102;15.452;2022-09-23T05:06:33;3.50;99.90
21805;DHT22;11064;47.102;15.452;2022-09-23T05:09:00;3.50;99.90
21805;DHT22;11064;47.102;15.452;2022-09-23T05:11:29;3.50;99.90
21805;DHT22;11064;47.102;15.452;2022-09-23T05:13:55;3.60;99.90
21805;DHT22;11064;47.102;15.452;2022-09-23T05:16:22;3.60;99.90
21805;DHT22;11064;47.102;15.452;2022-09-23T05:18:49;3.60;99.90
21805;DHT22;11064;47.102;15.452;2022-09-23T05:21:17;3.60;99.90
21805;DHT22;11064;47.102;15.452;2022-09-23T05:23:47;3.60;99.90
21805;DHT22;11064;47.102;15.452;2022-09-23T05:26:14;3.60;99.90
21805;DHT22;11064;47.102;15.452;2022-09-23T05:28:40;3.60;99.90
21805;DHT22;11064;47.102;15.452;2022-09-23T05:31:10;3.60;99.90
21805;DHT22;11064;47.102;15.452;2022-09-23T05:33:44;3.60;99.90
21805;DHT22;11064;47.102;15.452;2022-09-23T05:36:11;3.70;99.90
21805;DHT22;11064;47.102;15.452;2022-09-23T05:38:38;3.70;99.90
21805;DHT22;11064;47.102;15.452;2022-09-23T05:41:07;3.70;99.90
21805;DHT22;11064;47.102;15.452;2022-09-23T05:43:34;3.80;99.90
21805;DHT22;11064;47.102;15.452;2022-09-23T05:46:14;3.80;99.90
21805;DHT22;11064;47.102;15.452;2022-09-23T05:48:41;3.80;99.90
21805;DHT22;11064;47.102;15.452;2022-09-23T05:51:09;3.90;99.90
21805;DHT22;11064;47.102;15.452;2022-09-23T05:53:38;3.90;99.90
21805;DHT22;11064;47.102;15.452;2022-09-23T05:56:05;3.90;99.90
21805;DHT22;11064;47.102;15.452;2022-09-23T05:58:31;4.00;99.90
21805;DHT22;11064;47.102;15.452;2022-09-23T06:00:57;4.10;99.90
21805;DHT22;11064;47.102;15.452;2022-09-23T06:03:24;4.10;99.90
21805;DHT22;11064;47.102;15.452;2022-09-23T06:05:54;4.20;99.90
21805;DHT22;11064;47.102;15.452;2022-09-23T06:08:21;4.30;99.90
21805;DHT22;11064;47.102;15.452;2022-09-23T06:10:47;4.40;99.90
21805;DHT22;11064;47.102;15.452;2022-09-23T06:13:13;4.50;99.90
21805;DHT22;11064;47.102;15.452;2022-09-23T06:15:40;4.60;99.90
21805;DHT22;11064;47.102;15.452;2022-09-23T06:18:06;4.70;99.90
21805;DHT22;11064;47.102;15.452;2022-09-23T06:20:33;4.80;99.90
21805;DHT22;11064;47.102;15.452;2022-09-23T06:25:34;5.00;99.90
21805;DHT22;11064;47.102;15.452;2022-09-23T06:28:00;5.10;99.90
21805;DHT22;11064;47.102;15.452;2022-09-23T06:30:27;5.20;99.90
21805;DHT22;11064;47.102;15.452;2022-09-23T06:32:56;5.30;99.90
21805;DHT22;11064;47.102;15.452;2022-09-23T06:35:24;5.40;99.90
21805;DHT22;11064;47.102;15.452;2022-09-23T06:37:54;5.50;99.90
21805;DHT22;11064;47.102;15.452;2022-09-23T06:40:20;5.60;99.90
21805;DHT22;11064;47.102;15.452;2022-09-23T06:42:47;5.70;99.90
21805;DHT22;11064;47.102;15.452;2022-09-23T06:45:13;5.80;99.90
21805;DHT22;11064;47.102;15.452;2022-09-23T06:47:43;5.90;99.90
21805;DHT22;11064;47.102;15.452;2022-09-23T06:50:11;6.00;99.90
21805;DHT22;11064;47.102;15.452;2022-09-23T06:52:38;6.10;99.90
21805;DHT22;11064;47.102;15.452;2022-09-23T06:55:04;6.30;99.90
21805;DHT22;11064;47.102;15.452;2022-09-23T06:57:30;6.40;99.90
21805;DHT22;11064;47.102;15.452;2022-09-23T06:59:57;6.60;99.90
21805;DHT22;11064;47.102;15.452;2022-09-23T07:02:24;6.70;99.90
21805;DHT22;11064;47.102;15.452;2022-09-23T07:04:50;6.90;99.90
21805;DHT22;11064;47.102;15.452;2022-09-23T07:07:16;7.10;99.90
21805;DHT22;11064;47.102;15.452;2022-09-23T07:09:44;7.30;99.90
21805;DHT22;11064;47.102;15.452;2022-09-23T07:12:10;7.40;99.90
21805;DHT22;11064;47.102;15.452;2022-09-23T07:14:36;7.60;99.90
21805;DHT22;11064;47.102;15.452;2022-09-23T07:17:02;7.80;99.90
21805;DHT22;11064;47.102;15.452;2022-09-23T07:19:28;7.90;99.90
21805;DHT22;11064;47.102;15.452;2022-09-23T07:21:54;8.10;99.90
21805;DHT22;11064;47.102;15.452;2022-09-23T07:24:20;8.20;99.90
21805;DHT22;11064;47.102;15.452;2022-09-23T07:26:47;8.30;99.90
21805;DHT22;11064;47.102;15.452;2022-09-23T07:29:14;8.40;99.90
21805;DHT22;11064;47.102;15.452;2022-09-23T07:31:40;8.40;99.90
21805;DHT22;11064;47.102;15.452;2022-09-23T07:34:08;8.50;99.90
21805;DHT22;11064;47.102;15.452;2022-09-23T07:36:36;8.70;99.90
21805;DHT22;11064;47.102;15.452;2022-09-23T07:39:06;8.80;99.90
21805;DHT22;11064;47.102;15.452;2022-09-23T07:41:34;9.00;99.90
21805;DHT22;11064;47.102;15.452;2022-09-23T07:44:00;9.20;99.90
21805;DHT22;11064;47.102;15.452;2022-09-23T07:46:28;9.30;99.90
21805;DHT22;11064;47.102;15.452;2022-09-23T07:48:54;9.50;99.90
21805;DHT22;11064;47.102;15.452;2022-09-23T07:51:26;9.60;99.90
21805;DHT22;11064;47.102;15.452;2022-09-23T07:53:55;9.80;99.90
21805;DHT22;11064;47.102;15.452;2022-09-23T07:56:25;10.00;99.90
21805;DHT22;11064;47.102;15.452;2022-09-23T07:58:51;10.20;99.90
21805;DHT22;11064;47.102;15.452;2022-09-23T08:01:37;10.30;99.90
21805;DHT22;11064;47.102;15.452;2022-09-23T08:04:18;10.40;99.90
21805;DHT22;11064;47.102;15.452;2022-09-23T08:06:50;10.50;99.90
21805;DHT22;11064;47.102;15.452;2022-09-23T08:09:20;10.70;99.90
21805;DHT22;11064;47.102;15.452;2022-09-23T08:11:47;10.90;99.90
21805;DHT22;11064;47.102;15.452;2022-09-23T08:14:14;11.00;99.90
21805;DHT22;11064;47.102;15.452;2022-09-23T08:16:43;11.20;99.90
21805;DHT22;11064;47.102;15.452;2022-09-23T08:19:11;11.30;99.90
21805;DHT22;11064;47.102;15.452;2022-09-23T08:21:37;11.50;99.90
21805;DHT22;11064;47.102;15.452;2022-09-23T08:24:09;11.60;99.90
21805;DHT22;11064;47.102;15.452;2022-09-23T08:26:36;11.70;99.90
21805;DHT22;11064;47.102;15.452;2022-09-23T08:29:04;11.80;99.90
21805;DHT22;11064;47.102;15.452;2022-09-23T08:31:30;11.90;99.90
21805;DHT22;11064;47.102;15.452;2022-09-23T08:33:57;12.00;99.90
21805;DHT22;11064;47.102;15.452;2022-09-23T08:36:24;12.20;99.90
21805;DHT22;11064;47.102;15.452;2022-09-23T08:38:50;12.30;99.90
21805;DHT22;11064;47.102;15.452;2022-09-23T08:44:18;12.30;99.10
21805;DHT22;11064;47.102;15.452;2022-09-23T08:46:52;12.50;99.90
21805;DHT22;11064;47.102;15.452;2022-09-23T08:49:29;12.50;99.90
21805;DHT22;11064;47.102;15.452;2022-09-23T08:51:58;12.70;99.90
21805;DHT22;11064;47.102;15.452;2022-09-23T08:54:31;12.90;98.30
21805;DHT22;11064;47.102;15.452;2022-09-23T08:56:58;13.00;96.30
21805;DHT22;11064;47.102;15.452;2022-09-23T08:59:36;13.10;96.80
21805;DHT22;11064;47.102;15.452;2022-09-23T09:02:20;13.20;99.20
21805;DHT22;11064;47.102;15.452;2022-09-23T09:04:51;13.20;95.40
21805;DHT22;11064;47.102;15.452;2022-09-23T09:07:24;13.30;97.60
21805;DHT22;11064;47.102;15.452;2022-09-23T09:12:43;13.20;95.40
21805;DHT22;11064;47.102;15.452;2022-09-23T09:15:11;13.30;92.90
21805;DHT22;11064;47.102;15.452;2022-09-23T09:26:24;13.80;93.40
21805;DHT22;11064;47.102;15.452;2022-09-23T09:29:09;13.90;93.10
21805;DHT22;11064;47.102;15.452;2022-09-23T09:31:47;13.90;90.30
21805;DHT22;11064;47.102;15.452;2022-09-23T09:34:29;13.90;92.80
21805;DHT22;11064;47.102;15.452;2022-09-23T09:39:32;14.20;92.00
21805;DHT22;11064;47.102;15.452;2022-09-23T09:41:59;14.20;91.20
21805;DHT22;11064;47.102;15.452;2022-09-23T09:44:45;14.30;90.40
21805;DHT22;11064;47.102;15.452;2022-09-23T09:49:50;14.30;94.60
21805;DHT22;11064;47.102;15.452;2022-09-23T09:52:26;14.30;89.30
21805;DHT22;11064;47.102;15.452;2022-09-23T09:54:54;14.30;89.80
21805;DHT22;11064;47.102;15.452;2022-09-23T09:57:31;14.10;86.30
21805;DHT22;11064;47.102;15.452;2022-09-23T09:59:58;14.10;89.10
21805;DHT22;11064;47.102;15.452;2022-09-23T10:02:42;14.20;92.00
21805;DHT22;11064;47.102;15.452;2022-09-23T10:05:25;14.30;91.30
21805;DHT22;11064;47.102;15.452;2022-09-23T10:07:52;14.40;90.70
21805;DHT22;11064;47.102;15.452;2022-09-23T10:10:24;14.60;92.50
21805;DHT22;11064;47.102;15.452;2022-09-23T10:12:50;14.60;88.30
21805;DHT22;11064;47.102;15.452;2022-09-23T10:15:31;14.80;91.00
21805;DHT22;11064;47.102;15.452;2022-09-23T10:17:59;14.80;90.30
21805;DHT22;11064;47.102;15.452;2022-09-23T10:20:33;14.80;88.60
21805;DHT22;11064;47.102;15.452;2022-09-23T10:23:17;14.90;91.10
21805;DHT22;11064;47.102;15.452;2022-09-23T10:25:55;14.80;88.30
21805;DHT22;11064;47.102;15.452;2022-09-23T10:31:08;14.90;84.50
21805;DHT22;11064;47.102;15.452;2022-09-23T10:33:50;15.00;85.60
21805;DHT22;11064;47.102;15.452;2022-09-23T10:36:17;15.10;87.80
21805;DHT22;11064;47.102;15.452;2022-09-23T10:38:43;15.10;90.50
21805;DHT22;11064;47.102;15.452;2022-09-23T10:44:37;15.30;87.70
21805;DHT22;11064;47.102;15.452;2022-09-23T10:47:37;15.40;88.50
21805;DHT22;11064;47.102;15.452;2022-09-23T10:53:37;15.70;90.50
21805;DHT22;11064;47.102;15.452;2022-09-23T10:59:00;15.70;86.40
21805;DHT22;11064;47.102;15.452;2022-09-23T11:01:59;15.60;86.50
21805;DHT22;11064;47.102;15.452;2022-09-23T11:07:51;15.70;87.10
21805;DHT22;11064;47.102;15.452;2022-09-23T11:13:41;16.00;83.80
21805;DHT22;11064;47.102;15.452;2022-09-23T11:19:25;16.50;82.90
21805;DHT22;11064;47.102;15.452;2022-09-23T11:27:33;16.70;77.60
21805;DHT22;11064;47.102;15.452;2022-09-23T11:30:11;16.70;81.20
21805;DHT22;11064;47.102;15.452;2022-09-23T11:35:44;16.90;74.50
21805;DHT22;11064;47.102;15.452;2022-09-23T11:38:19;16.70;67.20
21805;DHT22;11064;47.102;15.452;2022-09-23T11:40:55;16.50;66.70
21805;DHT22;11064;47.102;15.452;2022-09-23T11:43:33;16.40;68.40
21805;DHT22;11064;47.102;15.452;2022-09-23T11:48:58;16.30;67.30
21805;DHT22;11064;47.102;15.452;2022-09-23T11:51:31;16.10;69.80
21805;DHT22;11064;47.102;15.452;2022-09-23T11:54:00;16.10;69.30
21805;DHT22;11064;47.102;15.452;2022-09-23T11:56:44;16.20;70.90
21805;DHT22;11064;47.102;15.452;2022-09-23T12:05:15;16.10;71.10
21805;DHT22;11064;47.102;15.452;2022-09-23T12:26:23;16.00;71.70
21805;DHT22;11064;47.102;15.452;2022-09-23T12:28:53;16.10;74.00
21805;DHT22;11064;47.102;15.452;2022-09-23T12:31:22;16.00;70.70
21805;DHT22;11064;47.102;15.452;2022-09-23T12:33:59;16.10;72.20
21805;DHT22;11064;47.102;15.452;2022-09-23T12:36:31;16.10;73.10
21805;DHT22;11064;47.102;15.452;2022-09-23T12:39:16;16.10;70.30
21805;DHT22;11064;47.102;15.452;2022-09-23T12:41:46;16.10;71.30
21805;DHT22;11064;47.102;15.452;2022-09-23T12:44:38;16.10;70.80
21805;DHT22;11064;47.102;15.452;2022-09-23T12:49:50;16.10;72.40
21805;DHT22;11064;47.102;15.452;2022-09-23T12:54:48;15.90;76.30
21805;DHT22;11064;47.102;15.452;2022-09-23T13:05:32;15.70;73.20
21805;DHT22;11064;47.102;15.452;2022-09-23T13:08:22;15.70;70.80
21805;DHT22;11064;47.102;15.452;2022-09-23T13:10:54;15.70;73.40
21805;DHT22;11064;47.102;15.452;2022-09-23T13:13:39;15.70;69.80
21805;DHT22;11064;47.102;15.452;2022-09-23T13:16:20;15.80;70.00
21805;DHT22;11064;47.102;15.452;2022-09-23T13:26:55;15.80;69.00
21805;DHT22;11064;47.102;15.452;2022-09-23T13:32:18;15.70;71.70
21805;DHT22;11064;47.102;15.452;2022-09-23T13:35:01;15.80;70.30
21805;DHT22;11064;47.102;15.452;2022-09-23T13:37:46;15.70;69.40
21805;DHT22;11064;47.102;15.452;2022-09-23T13:40:24;15.60;69.40
21805;DHT22;11064;47.102;15.452;2022-09-23T13:43:04;15.50;69.10
21805;DHT22;11064;47.102;15.452;2022-09-23T13:45:31;15.40;70.00
21805;DHT22;11064;47.102;15.452;2022-09-23T13:48:04;15.30;70.30
21805;DHT22;11064;47.102;15.452;2022-09-23T13:50:31;15.30;68.90
21805;DHT22;11064;47.102;15.452;2022-09-23T13:53:00;15.30;71.00
21805;DHT22;11064;47.102;15.452;2022-09-23T13:55:30;15.30;71.30
21805;DHT22;11064;47.102;15.452;2022-09-23T13:58:03;15.30;71.80
21805;DHT22;11064;47.102;15.452;2022-09-23T14:00:34;15.30;71.80
21805;DHT22;11064;47.102;15.452;2022-09-23T14:03:02;15.20;71.40
21805;DHT22;11064;47.102;15.452;2022-09-23T14:05:33;15.20;71.80
21805;DHT22;11064;47.102;15.452;2022-09-23T14:08:00;15.20;72.90
21805;DHT22;11064;47.102;15.452;2022-09-23T14:10:26;15.20;72.40
21805;DHT22;11064;47.102;15.452;2022-09-23T14:12:53;15.10;72.80
21805;DHT22;11064;47.102;15.452;2022-09-23T14:15:20;15.10;72.40
21805;DHT22;11064;47.102;15.452;2022-09-23T14:17:49;15.00;73.20
21805;DHT22;11064;47.102;15.452;2022-09-23T14:20:16;15.00;74.80
21805;DHT22;11064;47.102;15.452;2022-09-23T14:22:42;14.80;73.60
21805;DHT22;11064;47.102;15.452;2022-09-23T14:25:16;14.80;73.40
21805;DHT22;11064;47.102;15.452;2022-09-23T14:27:43;14.70;74.40
21805;DHT22;11064;47.102;15.452;2022-09-23T14:30:15;14.70;74.30
21805;DHT22;11064;47.102;15.452;2022-09-23T14:32:42;14.60;71.60
21805;DHT22;11064;47.102;15.452;2022-09-23T14:35:21;14.50;72.70
21805;DHT22;11064;47.102;15.452;2022-09-23T14:37:53;14.40;74.60
21805;DHT22;11064;47.102;15.452;2022-09-23T14:40:59;14.30;76.50
21805;DHT22;11064;47.102;15.452;2022-09-23T14:43:55;14.30;78.30
21805;DHT22;11064;47.102;15.452;2022-09-23T14:46:24;14.20;77.40
21805;DHT22;11064;47.102;15.452;2022-09-23T14:49:16;14.20;77.70
21805;DHT22;11064;47.102;15.452;2022-09-23T14:51:52;14.10;78.20
21805;DHT22;11064;47.102;15.452;2022-09-23T14:57:28;14.00;79.10
21805;DHT22;11064;47.102;15.452;2022-09-23T14:59:58;13.90;79.90
21805;DHT22;11064;47.102;15.452;2022-09-23T15:02:34;13.90;77.50
21805;DHT22;11064;47.102;15.452;2022-09-23T15:05:31;13.80;78.50
21805;DHT22;11064;47.102;15.452;2022-09-23T15:08:04;13.80;78.30
21805;DHT22;11064;47.102;15.452;2022-09-23T15:10:32;13.70;78.00
21805;DHT22;11064;47.102;15.452;2022-09-23T15:13:08;13.70;77.80
21805;DHT22;11064;47.102;15.452;2022-09-23T15:15:36;13.60;78.40
21805;DHT22;11064;47.102;15.452;2022-09-23T15:18:10;13.50;78.90
21805;DHT22;11064;47.102;15.452;2022-09-23T15:20:39;13.50;80.10
21805;DHT22;11064;47.102;15.452;2022-09-23T15:23:05;13.40;78.90
21805;DHT22;11064;47.102;15.452;2022-09-23T15:25:32;13.50;78.70
21805;DHT22;11064;47.102;15.452;2022-09-23T15:30:38;13.50;80.50
21805;DHT22;11064;47.102;15.452;2022-09-23T15:33:04;13.40;81.50
21805;DHT22;11064;47.102;15.452;2022-09-23T15:35:31;13.30;81.80
21805;DHT22;11064;47.102;15.452;2022-09-23T15:37:58;13.30;82.10
21805;DHT22;11064;47.102;15.452;2022-09-23T15:40:34;13.20;82.60
21805;DHT22;11064;47.102;15.452;2022-09-23T15:43:12;13.20;82.80
21805;DHT22;11064;47.102;15.452;2022-09-23T15:45:50;13.10;82.90
21805;DHT22;11064;47.102;15.452;2022-09-23T15:48:20;13.00;84.20
21805;DHT22;11064;47.102;15.452;2022-09-23T15:50:51;12.90;85.30
21805;DHT22;11064;47.102;15.452;2022-09-23T15:53:23;12.80;85.20
21805;DHT22;11064;47.102;15.452;2022-09-23T15:55:49;12.70;86.80
21805;DHT22;11064;47.102;15.452;2022-09-23T15:58:17;12.60;88.70
21805;DHT22;11064;47.102;15.452;2022-09-23T16:00:42;12.60;89.70
21805;DHT22;11064;47.102;15.452;2022-09-23T16:03:12;12.50;90.20
21805;DHT22;11064;47.102;15.452;2022-09-23T16:05:40;12.40;90.50
21805;DHT22;11064;47.102;15.452;2022-09-23T16:08:08;12.40;90.90
21805;DHT22;11064;47.102;15.452;2022-09-23T16:10:35;12.30;90.90
21805;DHT22;11064;47.102;15.452;2022-09-23T16:13:02;12.30;91.40
21805;DHT22;11064;47.102;15.452;2022-09-23T16:15:31;12.20;91.80
21805;DHT22;11064;47.102;15.452;2022-09-23T16:17:57;12.20;92.50
21805;DHT22;11064;47.102;15.452;2022-09-23T16:20:25;12.10;93.20
21805;DHT22;11064;47.102;15.452;2022-09-23T16:23:01;12.00;93.70
21805;DHT22;11064;47.102;15.452;2022-09-23T16:25:29;12.00;94.80
21805;DHT22;11064;47.102;15.452;2022-09-23T16:27:57;11.90;95.40
21805;DHT22;11064;47.102;15.452;2022-09-23T16:30:27;11.80;95.80
21805;DHT22;11064;47.102;15.452;2022-09-23T16:32:54;11.80;96.10
21805;DHT22;11064;47.102;15.452;2022-09-23T16:35:22;11.70;96.50
21805;DHT22;11064;47.102;15.452;2022-09-23T16:37:49;11.70;96.90
21805;DHT22;11064;47.102;15.452;2022-09-23T16:40:17;11.60;97.70
21805;DHT22;11064;47.102;15.452;2022-09-23T16:42:50;11.50;99.00
21805;DHT22;11064;47.102;15.452;2022-09-23T16:45:18;11.40;99.90
21805;DHT22;11064;47.102;15.452;2022-09-23T16:47:48;11.40;99.90
21805;DHT22;11064;47.102;15.452;2022-09-23T16:50:18;11.30;99.90
21805;DHT22;11064;47.102;15.452;2022-09-23T16:52:44;11.20;99.90
21805;DHT22;11064;47.102;15.452;2022-09-23T16:55:11;11.20;99.90
21805;DHT22;11064;47.102;15.452;2022-09-23T16:57:38;11.00;99.90
21805;DHT22;11064;47.102;15.452;2022-09-23T17:00:15;11.00;99.90
21805;DHT22;11064;47.102;15.452;2022-09-23T17:03:01;10.90;99.90
21805;DHT22;11064;47.102;15.452;2022-09-23T17:05:45;10.70;99.90
21805;DHT22;11064;47.102;15.452;2022-09-23T17:08:12;10.70;99.90
21805;DHT22;11064;47.102;15.452;2022-09-23T17:10:46;10.60;99.90
21805;DHT22;11064;47.102;15.452;2022-09-23T17:13:19;10.50;99.90
21805;DHT22;11064;47.102;15.452;2022-09-23T17:15:45;10.50;99.90
21805;DHT22;11064;47.102;15.452;2022-09-23T17:18:11;10.50;99.90
21805;DHT22;11064;47.102;15.452;2022-09-23T17:20:36;10.50;99.90
21805;DHT22;11064;47.102;15.452;2022-09-23T17:23:03;10.50;99.90
21805;DHT22;11064;47.102;15.452;2022-09-23T17:25:30;10.40;99.90
21805;DHT22;11064;47.102;15.452;2022-09-23T17:27:56;10.40;99.90
21805;DHT22;11064;47.102;15.452;2022-09-23T17:30:23;10.40;99.90
21805;DHT22;11064;47.102;15.452;2022-09-23T17:32:50;10.40;99.90
21805;DHT22;11064;47.102;15.452;2022-09-23T17:35:16;10.40;99.90
21805;DHT22;11064;47.102;15.452;2022-09-23T17:37:41;10.30;99.90
21805;DHT22;11064;47.102;15.452;2022-09-23T17:40:08;10.20;99.90
21805;DHT22;11064;47.102;15.452;2022-09-23T17:42:40;10.20;99.90
21805;DHT22;11064;47.102;15.452;2022-09-23T17:45:07;10.20;99.90
21805;DHT22;11064;47.102;15.452;2022-09-23T17:47:34;10.20;99.90
21805;DHT22;11064;47.102;15.452;2022-09-23T17:50:01;10.20;99.90
21805;DHT22;11064;47.102;15.452;2022-09-23T17:52:26;10.10;99.90
21805;DHT22;11064;47.102;15.452;2022-09-23T17:54:52;10.10;99.90
21805;DHT22;11064;47.102;15.452;2022-09-23T17:57:20;10.10;99.90
21805;DHT22;11064;47.102;15.452;2022-09-23T17:59:46;10.10;99.90
21805;DHT22;11064;47.102;15.452;2022-09-23T18:02:15;10.20;99.90
21805;DHT22;11064;47.102;15.452;2022-09-23T18:04:41;10.10;99.90
21805;DHT22;11064;47.102;15.452;2022-09-23T18:07:07;10.10;99.90
21805;DHT22;11064;47.102;15.452;2022-09-23T18:09:32;10.10;99.90
21805;DHT22;11064;47.102;15.452;2022-09-23T18:11:58;10.10;99.90
21805;DHT22;11064;47.102;15.452;2022-09-23T18:14:24;10.00;99.90
21805;DHT22;11064;47.102;15.452;2022-09-23T18:16:51;9.90;99.90
21805;DHT22;11064;47.102;15.452;2022-09-23T18:19:20;9.90;99.90
21805;DHT22;11064;47.102;15.452;2022-09-23T18:21:51;9.90;99.90
21805;DHT22;11064;47.102;15.452;2022-09-23T18:24:19;9.90;99.90
21805;DHT22;11064;47.102;15.452;2022-09-23T18:26:46;9.80;99.90
21805;DHT22;11064;47.102;15.452;2022-09-23T18:29:12;9.70;99.90
21805;DHT22;11064;47.102;15.452;2022-09-23T18:31:38;9.80;99.90
21805;DHT22;11064;47.102;15.452;2022-09-23T18:34:10;9.80;99.90
21805;DHT22;11064;47.102;15.452;2022-09-23T18:36:37;9.90;99.90
21805;DHT22;11064;47.102;15.452;2022-09-23T18:39:04;9.80;99.90
21805;DHT22;11064;47.102;15.452;2022-09-23T18:41:30;9.80;99.90
21805;DHT22;11064;47.102;15.452;2022-09-23T18:43:56;9.80;99.90
21805;DHT22;11064;47.102;15.452;2022-09-23T18:46:24;9.90;99.90
21805;DHT22;11064;47.102;15.452;2022-09-23T18:48:51;9.90;99.90
21805;DHT22;11064;47.102;15.452;2022-09-23T18:51:37;9.90;99.90
21805;DHT22;11064;47.102;15.452;2022-09-23T18:54:06;9.90;99.90
21805;DHT22;11064;47.102;15.452;2022-09-23T18:56:38;9.90;99.90
21805;DHT22;11064;47.102;15.452;2022-09-23T18:59:07;9.90;99.90
21805;DHT22;11064;47.102;15.452;2022-09-23T19:01:34;9.90;99.90
21805;DHT22;11064;47.102;15.452;2022-09-23T19:04:00;9.90;99.90
21805;DHT22;11064;47.102;15.452;2022-09-23T19:06:27;9.90;99.90
21805;DHT22;11064;47.102;15.452;2022-09-23T19:08:54;9.80;99.90
21805;DHT22;11064;47.102;15.452;2022-09-23T19:11:21;9.80;99.90
21805;DHT22;11064;47.102;15.452;2022-09-23T19:13:55;9.80;99.90
21805;DHT22;11064;47.102;15.452;2022-09-23T19:16:22;9.80;99.90
21805;DHT22;11064;47.102;15.452;2022-09-23T19:18:49;9.80;99.90
21805;DHT22;11064;47.102;15.452;2022-09-23T19:21:17;9.80;99.90
21805;DHT22;11064;47.102;15.452;2022-09-23T19:23:47;9.80;99.90
21805;DHT22;11064;47.102;15.452;2022-09-23T19:26:15;9.70;99.90
21805;DHT22;11064;47.102;15.452;2022-09-23T19:28:47;9.60;99.90
21805;DHT22;11064;47.102;15.452;2022-09-23T19:31:20;9.70;99.90
21805;DHT22;11064;47.102;15.452;2022-09-23T19:33:55;9.70;99.90
21805;DHT22;11064;47.102;15.452;2022-09-23T19:36:26;9.60;99.90
21805;DHT22;11064;47.102;15.452;2022-09-23T19:38:57;9.60;99.90
21805;DHT22;11064;47.102;15.452;2022-09-23T19:41:25;9.60;99.90
21805;DHT22;11064;47.102;15.452;2022-09-23T19:43:53;9.60;99.90
21805;DHT22;11064;47.102;15.452;2022-09-23T19:46:19;9.60;99.90
21805;DHT22;11064;47.102;15.452;2022-09-23T19:48:46;9.60;99.90
21805;DHT22;11064;47.102;15.452;2022-09-23T19:51:13;9.70;99.90
21805;DHT22;11064;47.102;15.452;2022-09-23T19:53:41;9.70;99.90
21805;DHT22;11064;47.102;15.452;2022-09-23T19:56:07;9.60;99.90
21805;DHT22;11064;47.102;15.452;2022-09-23T19:58:33;9.60;99.90
21805;DHT22;11064;47.102;15.452;2022-09-23T20:01:00;9.60;99.90
21805;DHT22;11064;47.102;15.452;2022-09-23T20:03:31;9.50;99.90
21805;DHT22;11064;47.102;15.452;2022-09-23T20:05:57;9.50;99.90
21805;DHT22;11064;47.102;15.452;2022-09-23T20:08:24;9.30;99.90
21805;DHT22;11064;47.102;15.452;2022-09-23T20:10:52;9.30;99.90
21805;DHT22;11064;47.102;15.452;2022-09-23T20:13:18;9.30;99.90
21805;DHT22;11064;47.102;15.452;2022-09-23T20:15:45;9.20;99.90
21805;DHT22;11064;47.102;15.452;2022-09-23T20:18:10;9.20;99.90
21805;DHT22;11064;47.102;15.452;2022-09-23T20:20:36;9.20;99.90
21805;DHT22;11064;47.102;15.452;2022-09-23T20:23:02;9.20;99.90
21805;DHT22;11064;47.102;15.452;2022-09-23T20:25:28;9.20;99.90
21805;DHT22;11064;47.102;15.452;2022-09-23T20:28:14;9.10;99.90
21805;DHT22;11064;47.102;15.452;2022-09-23T20:30:40;9.00;99.90
21805;DHT22;11064;47.102;15.452;2022-09-23T20:33:09;9.10;99.90
21805;DHT22;11064;47.102;15.452;2022-09-23T20:35:36;9.30;99.90
21805;DHT22;11064;47.102;15.452;2022-09-23T20:38:02;9.30;99.90
21805;DHT22;11064;47.102;15.452;2022-09-23T20:40:28;9.60;99.90
21805;DHT22;11064;47.102;15.452;2022-09-23T20:42:53;9.70;99.90
21805;DHT22;11064;47.102;15.452;2022-09-23T20:45:19;9.80;99.90
21805;DHT22;11064;47.102;15.452;2022-09-23T20:47:45;9.80;99.90
21805;DHT22;11064;47.102;15.452;2022-09-23T20:50:10;10.00;99.90
21805;DHT22;11064;47.102;15.452;2022-09-23T20:52:36;10.00;99.90
21805;DHT22;11064;47.102;15.452;2022-09-23T20:55:02;10.00;99.90
21805;DHT22;11064;47.102;15.452;2022-09-23T20:57:28;9.90;99.90
21805;DHT22;11064;47.102;15.452;2022-09-23T20:59:56;9.70;99.90
21805;DHT22;11064;47.102;15.452;2022-09-23T21:02:21;9.50;99.90
21805;DHT22;11064;47.102;15.452;2022-09-23T21:04:49;9.40;99.90
21805;DHT22;11064;47.102;15.452;2022-09-23T21:07:15;9.20;99.90
21805;DHT22;11064;47.102;15.452;2022-09-23T21:09:41;9.10;99.90
21805;DHT22;11064;47.102;15.452;2022-09-23T21:12:07;9.10;99.90
21805;DHT22;11064;47.102;15.452;2022-09-23T21:14:33;9.00;99.90
21805;DHT22;11064;47.102;15.452;2022-09-23T21:16:58;9.10;99.90
21805;DHT22;11064;47.102;15.452;2022-09-23T21:19:24;9.10;99.90
21805;DHT22;11064;47.102;15.452;2022-09-23T21:21:52;9.10;99.90
21805;DHT22;11064;47.102;15.452;2022-09-23T21:24:18;9.10;99.90
21805;DHT22;11064;47.102;15.452;2022-09-23T21:26:44;9.00;99.90
21805;DHT22;11064;47.102;15.452;2022-09-23T21:29:12;9.00;99.90
21805;DHT22;11064;47.102;15.452;2022-09-23T21:31:38;8.90;99.90